Terminal Aerodrome Forecast
Issued by NWS

Home | Current Version | Previous Version | Text Only | Print | Product List | Glossary On
Versions: 1 2 3 4 5 6 7 8 9 10 11 12 13 14 15 16 17 18 19 20 21 22 23 24 25 26 27 28 29 30 31
000
FTUS44 KMAF 202300
TAFHOB
TAF
KHOB 202331Z 2100/2124 06009KT P6SM OVC040
     FM210600 08009KT P6SM OVC020
      TEMPO 2106/2110 2SM TSRA BR OVC005CB
     FM211000 07007KT P6SM OVC015
      TEMPO 2110/2114 1SM TSRA BR OVC005CB
     FM211400 06009KT P6SM OVC020
      TEMPO 2114/2118 2SM TSRA BR OVC005CB=

USA.gov is the U.S. government's official web portal to all federal, state and local government web resources and services.